หน้าหลัก
METAR-TAF:

METAR-TAF

ท่าอากาศยาน :

ออตตาวา, ออนแทรีโอ, แคนาดา

ละติจูด: 45-19N, ลองจิจูด: 075-40W, ความสูง: 116 ม.

การสังเกตสภาพอากาศปัจจุบัน

รายงานได้ทำขึ้นเมื่อ 37 นาทีที่แล้ว ณ เวลา 04:00 UTC
ลม 7 นอตจากตะวันออกเฉียงเหนือ
อุณหภูมิ -12°C
ความชื้น 78%
ความกดอากาศ 1029 hPa
ทัศนวิสัย: 24.1 กม.
ท้องฟ้าแจ่มใส

METAR: CYOW 210400Z 05007KT 15SM SKC M12/M15 A3040 RMK SLP306

เวลา: 23:37 (04:37 UTC)

การพยากรณ์

รายงานได้ทำขึ้นเมื่อ 1 ชั่วโมงและ 57 นาทีที่แล้ว ณ เวลา 02:40 UTC
การพยากรณ์มีผลตั้งแต่วันที่ 21 ณ เวลา 03 UTC จนถึงวันที่ 21 ณ เวลา 24 UTC
ลม 8 นอตจากตะวันออก/ตะวันออกเฉียงเหนือ
ทัศนวิสัย: 10 กม.
มีเมฆน้อยที่ความสูง 3000 ฟุต
จาก 21 ณ เวลา 1600 UTC
ลม 10 นอตจากใต้โดยมีลมกระโชกได้ถึง20 นอต
ทัศนวิสัย: 10 กม.
มีเมฆน้อยที่ความสูง 14000 ฟุต
กำลังกลายเป็น
ตั้งแต่วันที่ 21 ณ เวลา 22 UTC จนถึงวันที่ 21 ณ เวลา 24 UTC
ลม 8 นอตจากใต้

TAF: CYOW 210240Z 2103/2124 07008KT P6SM FEW030 FM211600 17010G20KT P6SM FEW140 BECMG 2122/2124 17008KT RMK NXT FCST BY 210600Z

สังเกตการณ์สภาพอากาศและพยากรณ์อากาศของสนามบินมากกว่า 4000 แห่ง (รายงาน METAR และ TAF).

สถานีที่ดูได้จะแสดงไว้ด้วยจุดสีเหลืองและสีแดงบนแผนที่.

เลื่อนเมาส์ไปเหนือจุดเพื่อดูชื่อสถานี.

แล้วคลิกเพื่อดูสังเกตการณ์และการพยากรณ์สภาพอากาศ.

ในการเปลี่ยนแผนที่: คลิกที่ปุ่มสีเขียวที่มีกากบาทสีดำเพื่อซูมเข้า; ที่ปุ่มสีเขียวที่มีขีดเพื่อซูมออก; หรือที่ลูกศรสีเขียวเพื่อไปยังแผนที่ที่อยู่ติดกัน.


METAR-TAF: